sensor_id;sensor_type;location;lat;lon;timestamp;P1;durP1;ratioP1;P2;durP2;ratioP2
63203;SDS011;49297;43.210;27.914;2022-09-29T00:02:18;22.20;;;16.33;;
63203;SDS011;49297;43.210;27.914;2022-09-29T00:04:44;25.23;;;16.90;;
63203;SDS011;49297;43.210;27.914;2022-09-29T00:07:10;18.50;;;16.77;;
63203;SDS011;49297;43.210;27.914;2022-09-29T00:09:36;16.13;;;14.65;;
63203;SDS011;49297;43.210;27.914;2022-09-29T00:12:04;17.60;;;15.80;;
63203;SDS011;49297;43.210;27.914;2022-09-29T00:14:30;18.58;;;16.70;;
63203;SDS011;49297;43.210;27.914;2022-09-29T00:16:57;22.43;;;18.27;;
63203;SDS011;49297;43.210;27.914;2022-09-29T00:19:24;19.40;;;17.70;;
63203;SDS011;49297;43.210;27.914;2022-09-29T00:21:51;19.15;;;17.25;;
63203;SDS011;49297;43.210;27.914;2022-09-29T00:24:17;21.38;;;19.20;;
63203;SDS011;49297;43.210;27.914;2022-09-29T00:26:43;19.97;;;17.93;;
63203;SDS011;49297;43.210;27.914;2022-09-29T00:29:11;19.98;;;18.05;;
63203;SDS011;49297;43.210;27.914;2022-09-29T00:31:37;19.85;;;17.75;;
63203;SDS011;49297;43.210;27.914;2022-09-29T00:34:03;19.40;;;17.55;;
63203;SDS011;49297;43.210;27.914;2022-09-29T00:36:29;19.95;;;16.83;;
63203;SDS011;49297;43.210;27.914;2022-09-29T00:38:55;21.25;;;16.63;;
63203;SDS011;49297;43.210;27.914;2022-09-29T00:41:24;22.83;;;17.98;;
63203;SDS011;49297;43.210;27.914;2022-09-29T00:46:29;20.23;;;17.02;;
63203;SDS011;49297;43.210;27.914;2022-09-29T00:52:11;22.10;;;16.88;;
63203;SDS011;49297;43.210;27.914;2022-09-29T00:54:52;24.92;;;22.35;;
63203;SDS011;49297;43.210;27.914;2022-09-29T00:57:24;25.48;;;22.55;;
63203;SDS011;49297;43.210;27.914;2022-09-29T01:02:24;24.55;;;17.45;;
63203;SDS011;49297;43.210;27.914;2022-09-29T01:04:51;19.40;;;17.45;;
63203;SDS011;49297;43.210;27.914;2022-09-29T01:07:23;27.52;;;21.92;;
63203;SDS011;49297;43.210;27.914;2022-09-29T01:09:50;24.73;;;21.27;;
63203;SDS011;49297;43.210;27.914;2022-09-29T01:12:24;24.17;;;19.02;;
63203;SDS011;49297;43.210;27.914;2022-09-29T01:14:54;25.38;;;19.60;;
63203;SDS011;49297;43.210;27.914;2022-09-29T01:17:21;26.17;;;19.77;;
63203;SDS011;49297;43.210;27.914;2022-09-29T01:25:36;22.63;;;20.25;;
63203;SDS011;49297;43.210;27.914;2022-09-29T01:28:45;24.73;;;21.38;;
63203;SDS011;49297;43.210;27.914;2022-09-29T01:34:14;23.10;;;20.33;;
63203;SDS011;49297;43.210;27.914;2022-09-29T01:39:42;25.88;;;20.48;;
63203;SDS011;49297;43.210;27.914;2022-09-29T01:42:35;20.60;;;18.65;;
63203;SDS011;49297;43.210;27.914;2022-09-29T01:45:44;21.70;;;19.27;;
63203;SDS011;49297;43.210;27.914;2022-09-29T01:48:17;21.95;;;18.38;;
63203;SDS011;49297;43.210;27.914;2022-09-29T01:50:50;20.15;;;18.00;;
63203;SDS011;49297;43.210;27.914;2022-09-29T01:53:27;22.10;;;18.58;;
63203;SDS011;49297;43.210;27.914;2022-09-29T01:56:04;17.88;;;15.73;;
63203;SDS011;49297;43.210;27.914;2022-09-29T01:58:36;19.33;;;15.85;;
63203;SDS011;49297;43.210;27.914;2022-09-29T02:01:16;27.67;;;17.30;;
63203;SDS011;49297;43.210;27.914;2022-09-29T02:03:47;19.65;;;15.60;;
63203;SDS011;49297;43.210;27.914;2022-09-29T02:06:25;19.20;;;17.20;;
63203;SDS011;49297;43.210;27.914;2022-09-29T02:09:02;18.77;;;16.80;;
63203;SDS011;49297;43.210;27.914;2022-09-29T02:11:32;18.10;;;16.30;;
63203;SDS011;49297;43.210;27.914;2022-09-29T02:16:47;21.58;;;16.30;;
63203;SDS011;49297;43.210;27.914;2022-09-29T02:19:24;16.75;;;15.10;;
63203;SDS011;49297;43.210;27.914;2022-09-29T02:21:51;17.33;;;15.48;;
63203;SDS011;49297;43.210;27.914;2022-09-29T02:24:21;20.90;;;16.47;;
63203;SDS011;49297;43.210;27.914;2022-09-29T02:26:50;17.75;;;16.02;;
63203;SDS011;49297;43.210;27.914;2022-09-29T02:29:17;17.08;;;15.27;;
63203;SDS011;49297;43.210;27.914;2022-09-29T02:31:44;19.02;;;17.15;;
63203;SDS011;49297;43.210;27.914;2022-09-29T02:34:12;17.53;;;15.83;;
63203;SDS011;49297;43.210;27.914;2022-09-29T02:42:24;19.95;;;15.60;;
63203;SDS011;49297;43.210;27.914;2022-09-29T02:53:23;16.35;;;14.65;;
63203;SDS011;49297;43.210;27.914;2022-09-29T02:59:04;18.77;;;14.93;;
63203;SDS011;49297;43.210;27.914;2022-09-29T03:01:39;18.55;;;14.27;;
63203;SDS011;49297;43.210;27.914;2022-09-29T03:04:16;17.17;;;14.23;;
63203;SDS011;49297;43.210;27.914;2022-09-29T03:06:43;19.15;;;14.15;;
63203;SDS011;49297;43.210;27.914;2022-09-29T03:09:10;15.80;;;14.23;;
63203;SDS011;49297;43.210;27.914;2022-09-29T03:11:36;18.60;;;16.15;;
63203;SDS011;49297;43.210;27.914;2022-09-29T03:14:02;21.48;;;17.25;;
63203;SDS011;49297;43.210;27.914;2022-09-29T03:16:28;23.90;;;18.98;;
63203;SDS011;49297;43.210;27.914;2022-09-29T03:18:54;21.40;;;17.95;;
63203;SDS011;49297;43.210;27.914;2022-09-29T03:21:21;31.00;;;25.93;;
63203;SDS011;49297;43.210;27.914;2022-09-29T03:23:54;21.77;;;19.70;;
63203;SDS011;49297;43.210;27.914;2022-09-29T03:26:20;21.02;;;18.50;;
63203;SDS011;49297;43.210;27.914;2022-09-29T03:28:46;24.70;;;22.30;;
63203;SDS011;49297;43.210;27.914;2022-09-29T03:31:11;21.77;;;19.63;;
63203;SDS011;49297;43.210;27.914;2022-09-29T03:33:38;20.02;;;17.92;;
63203;SDS011;49297;43.210;27.914;2022-09-29T03:36:04;22.80;;;19.37;;
63203;SDS011;49297;43.210;27.914;2022-09-29T03:38:32;19.90;;;17.90;;
63203;SDS011;49297;43.210;27.914;2022-09-29T03:40:58;20.20;;;17.80;;
63203;SDS011;49297;43.210;27.914;2022-09-29T03:43:26;21.05;;;18.95;;
63203;SDS011;49297;43.210;27.914;2022-09-29T03:45:52;20.38;;;18.67;;
63203;SDS011;49297;43.210;27.914;2022-09-29T03:48:19;21.23;;;19.13;;
63203;SDS011;49297;43.210;27.914;2022-09-29T03:50:48;22.88;;;20.73;;
63203;SDS011;49297;43.210;27.914;2022-09-29T03:53:17;21.33;;;19.33;;
63203;SDS011;49297;43.210;27.914;2022-09-29T03:55:47;24.27;;;21.77;;
63203;SDS011;49297;43.210;27.914;2022-09-29T03:58:15;21.85;;;19.20;;
63203;SDS011;49297;43.210;27.914;2022-09-29T04:00:42;20.03;;;18.07;;
63203;SDS011;49297;43.210;27.914;2022-09-29T04:03:09;31.08;;;28.15;;
63203;SDS011;49297;43.210;27.914;2022-09-29T04:05:35;32.60;;;29.27;;
63203;SDS011;49297;43.210;27.914;2022-09-29T04:08:07;38.05;;;34.53;;
63203;SDS011;49297;43.210;27.914;2022-09-29T04:10:33;34.72;;;28.27;;
63203;SDS011;49297;43.210;27.914;2022-09-29T04:13:03;27.08;;;24.38;;
63203;SDS011;49297;43.210;27.914;2022-09-29T04:15:31;27.10;;;21.15;;
63203;SDS011;49297;43.210;27.914;2022-09-29T04:17:57;22.93;;;18.87;;
63203;SDS011;49297;43.210;27.914;2022-09-29T04:20:23;21.30;;;18.40;;
63203;SDS011;49297;43.210;27.914;2022-09-29T04:22:50;21.80;;;18.63;;
63203;SDS011;49297;43.210;27.914;2022-09-29T04:25:16;23.75;;;17.92;;
63203;SDS011;49297;43.210;27.914;2022-09-29T04:27:42;26.27;;;18.15;;
63203;SDS011;49297;43.210;27.914;2022-09-29T04:30:08;23.50;;;19.50;;
63203;SDS011;49297;43.210;27.914;2022-09-29T04:32:35;23.03;;;20.77;;
63203;SDS011;49297;43.210;27.914;2022-09-29T04:35:02;24.70;;;22.10;;
63203;SDS011;49297;43.210;27.914;2022-09-29T04:37:28;28.08;;;25.02;;
63203;SDS011;49297;43.210;27.914;2022-09-29T04:39:56;30.87;;;25.13;;
63203;SDS011;49297;43.210;27.914;2022-09-29T04:42:22;32.85;;;24.95;;
63203;SDS011;49297;43.210;27.914;2022-09-29T04:44:48;36.20;;;28.35;;
63203;SDS011;49297;43.210;27.914;2022-09-29T04:47:15;44.78;;;28.90;;
63203;SDS011;49297;43.210;27.914;2022-09-29T04:49:41;38.72;;;28.75;;
63203;SDS011;49297;43.210;27.914;2022-09-29T04:52:10;43.22;;;30.10;;
63203;SDS011;49297;43.210;27.914;2022-09-29T04:54:36;40.10;;;30.70;;
63203;SDS011;49297;43.210;27.914;2022-09-29T04:57:03;46.00;;;29.97;;
63203;SDS011;49297;43.210;27.914;2022-09-29T04:59:29;45.65;;;33.05;;
63203;SDS011;49297;43.210;27.914;2022-09-29T05:01:55;39.40;;;29.40;;
63203;SDS011;49297;43.210;27.914;2022-09-29T05:04:21;42.83;;;25.65;;
63203;SDS011;49297;43.210;27.914;2022-09-29T05:06:47;31.80;;;25.70;;
63203;SDS011;49297;43.210;27.914;2022-09-29T05:09:13;29.63;;;23.87;;
63203;SDS011;49297;43.210;27.914;2022-09-29T05:11:47;28.13;;;25.02;;
63203;SDS011;49297;43.210;27.914;2022-09-29T05:14:13;33.72;;;24.52;;
63203;SDS011;49297;43.210;27.914;2022-09-29T05:16:39;29.98;;;23.63;;
63203;SDS011;49297;43.210;27.914;2022-09-29T05:19:04;29.80;;;24.10;;
63203;SDS011;49297;43.210;27.914;2022-09-29T05:21:31;28.98;;;24.60;;
63203;SDS011;49297;43.210;27.914;2022-09-29T05:23:57;28.58;;;25.65;;
63203;SDS011;49297;43.210;27.914;2022-09-29T05:26:24;31.40;;;24.40;;
63203;SDS011;49297;43.210;27.914;2022-09-29T05:28:49;31.27;;;25.88;;
63203;SDS011;49297;43.210;27.914;2022-09-29T05:31:15;32.05;;;24.35;;
63203;SDS011;49297;43.210;27.914;2022-09-29T05:33:42;24.42;;;21.83;;
63203;SDS011;49297;43.210;27.914;2022-09-29T05:36:08;24.48;;;21.90;;
63203;SDS011;49297;43.210;27.914;2022-09-29T05:38:36;29.77;;;24.15;;
63203;SDS011;49297;43.210;27.914;2022-09-29T05:41:04;27.38;;;23.70;;
63203;SDS011;49297;43.210;27.914;2022-09-29T05:43:31;27.55;;;23.23;;
63203;SDS011;49297;43.210;27.914;2022-09-29T05:46:01;40.28;;;28.17;;
63203;SDS011;49297;43.210;27.914;2022-09-29T05:48:31;33.25;;;26.88;;
63203;SDS011;49297;43.210;27.914;2022-09-29T05:50:58;31.23;;;25.55;;
63203;SDS011;49297;43.210;27.914;2022-09-29T05:53:30;28.90;;;25.27;;
63203;SDS011;49297;43.210;27.914;2022-09-29T05:55:56;32.83;;;27.65;;
63203;SDS011;49297;43.210;27.914;2022-09-29T05:58:22;32.77;;;28.30;;
63203;SDS011;49297;43.210;27.914;2022-09-29T06:00:50;31.73;;;28.33;;
63203;SDS011;49297;43.210;27.914;2022-09-29T06:03:17;32.63;;;28.00;;
63203;SDS011;49297;43.210;27.914;2022-09-29T06:05:43;31.42;;;28.05;;
63203;SDS011;49297;43.210;27.914;2022-09-29T06:08:11;31.13;;;27.98;;
63203;SDS011;49297;43.210;27.914;2022-09-29T06:10:44;30.20;;;26.95;;
63203;SDS011;49297;43.210;27.914;2022-09-29T06:13:10;34.33;;;29.10;;
63203;SDS011;49297;43.210;27.914;2022-09-29T06:15:37;34.25;;;26.95;;
63203;SDS011;49297;43.210;27.914;2022-09-29T06:18:03;33.47;;;26.45;;
63203;SDS011;49297;43.210;27.914;2022-09-29T06:20:29;30.80;;;26.23;;
63203;SDS011;49297;43.210;27.914;2022-09-29T06:22:57;34.75;;;28.63;;
63203;SDS011;49297;43.210;27.914;2022-09-29T06:25:23;35.97;;;29.13;;
63203;SDS011;49297;43.210;27.914;2022-09-29T06:27:49;37.67;;;28.57;;
63203;SDS011;49297;43.210;27.914;2022-09-29T06:30:16;27.10;;;23.95;;
63203;SDS011;49297;43.210;27.914;2022-09-29T06:32:42;28.05;;;25.05;;
63203;SDS011;49297;43.210;27.914;2022-09-29T06:35:08;27.92;;;24.95;;
63203;SDS011;49297;43.210;27.914;2022-09-29T06:37:53;24.70;;;20.30;;
63203;SDS011;49297;43.210;27.914;2022-09-29T06:40:21;21.73;;;19.30;;
63203;SDS011;49297;43.210;27.914;2022-09-29T06:42:50;20.27;;;17.63;;
63203;SDS011;49297;43.210;27.914;2022-09-29T06:45:15;22.95;;;15.45;;
63203;SDS011;49297;43.210;27.914;2022-09-29T06:47:44;12.50;;;11.20;;
63203;SDS011;49297;43.210;27.914;2022-09-29T06:50:09;11.52;;;9.93;;
63203;SDS011;49297;43.210;27.914;2022-09-29T06:52:35;13.55;;;12.15;;
63203;SDS011;49297;43.210;27.914;2022-09-29T06:55:02;16.37;;;14.60;;
63203;SDS011;49297;43.210;27.914;2022-09-29T06:57:29;16.80;;;15.20;;
63203;SDS011;49297;43.210;27.914;2022-09-29T06:59:54;15.67;;;14.03;;
63203;SDS011;49297;43.210;27.914;2022-09-29T07:02:21;17.27;;;14.20;;
63203;SDS011;49297;43.210;27.914;2022-09-29T07:04:46;15.73;;;14.27;;
63203;SDS011;49297;43.210;27.914;2022-09-29T07:07:15;15.55;;;13.95;;
63203;SDS011;49297;43.210;27.914;2022-09-29T07:12:12;21.70;;;19.10;;
63203;SDS011;49297;43.210;27.914;2022-09-29T07:14:52;17.95;;;16.13;;
63203;SDS011;49297;43.210;27.914;2022-09-29T07:17:18;14.13;;;12.88;;
63203;SDS011;49297;43.210;27.914;2022-09-29T07:19:44;13.45;;;12.15;;
63203;SDS011;49297;43.210;27.914;2022-09-29T07:22:10;11.63;;;10.63;;
63203;SDS011;49297;43.210;27.914;2022-09-29T07:24:38;13.18;;;10.35;;
63203;SDS011;49297;43.210;27.914;2022-09-29T07:27:05;13.70;;;10.40;;
63203;SDS011;49297;43.210;27.914;2022-09-29T07:29:32;9.33;;;8.37;;
63203;SDS011;49297;43.210;27.914;2022-09-29T07:31:59;9.05;;;8.15;;
63203;SDS011;49297;43.210;27.914;2022-09-29T07:34:25;9.40;;;8.50;;
63203;SDS011;49297;43.210;27.914;2022-09-29T07:36:51;11.77;;;10.63;;
63203;SDS011;49297;43.210;27.914;2022-09-29T07:39:18;29.02;;;26.13;;
63203;SDS011;49297;43.210;27.914;2022-09-29T07:41:45;8.25;;;6.82;;
63203;SDS011;49297;43.210;27.914;2022-09-29T07:44:12;6.93;;;5.88;;
63203;SDS011;49297;43.210;27.914;2022-09-29T07:46:38;8.07;;;7.37;;
63203;SDS011;49297;43.210;27.914;2022-09-29T07:49:05;7.50;;;6.70;;
63203;SDS011;49297;43.210;27.914;2022-09-29T07:51:32;7.03;;;6.40;;
63203;SDS011;49297;43.210;27.914;2022-09-29T07:54:02;6.88;;;6.22;;
63203;SDS011;49297;43.210;27.914;2022-09-29T07:56:35;8.93;;;6.32;;
63203;SDS011;49297;43.210;27.914;2022-09-29T07:59:01;6.00;;;5.50;;
63203;SDS011;49297;43.210;27.914;2022-09-29T08:01:28;6.70;;;6.00;;
63203;SDS011;49297;43.210;27.914;2022-09-29T08:03:55;5.37;;;4.90;;
63203;SDS011;49297;43.210;27.914;2022-09-29T08:06:22;7.17;;;5.30;;
63203;SDS011;49297;43.210;27.914;2022-09-29T08:08:51;8.53;;;4.90;;
63203;SDS011;49297;43.210;27.914;2022-09-29T08:11:18;5.13;;;4.63;;
63203;SDS011;49297;43.210;27.914;2022-09-29T08:13:46;5.10;;;4.60;;
63203;SDS011;49297;43.210;27.914;2022-09-29T08:16:24;6.57;;;4.47;;
63203;SDS011;49297;43.210;27.914;2022-09-29T08:18:50;5.63;;;4.40;;
63203;SDS011;49297;43.210;27.914;2022-09-29T08:21:16;5.32;;;4.25;;
63203;SDS011;49297;43.210;27.914;2022-09-29T08:23:44;6.10;;;3.80;;
63203;SDS011;49297;43.210;27.914;2022-09-29T08:26:11;5.88;;;3.70;;
63203;SDS011;49297;43.210;27.914;2022-09-29T08:28:39;3.90;;;3.38;;
63203;SDS011;49297;43.210;27.914;2022-09-29T08:31:08;4.80;;;3.58;;
63203;SDS011;49297;43.210;27.914;2022-09-29T08:33:35;5.97;;;3.97;;
63203;SDS011;49297;43.210;27.914;2022-09-29T08:36:03;5.50;;;3.38;;
63203;SDS011;49297;43.210;27.914;2022-09-29T08:38:40;6.05;;;3.78;;
63203;SDS011;49297;43.210;27.914;2022-09-29T08:43:58;8.40;;;3.88;;
63203;SDS011;49297;43.210;27.914;2022-09-29T08:46:30;4.90;;;3.90;;
63203;SDS011;49297;43.210;27.914;2022-09-29T08:49:05;3.80;;;3.40;;
63203;SDS011;49297;43.210;27.914;2022-09-29T08:51:53;7.18;;;4.05;;
63203;SDS011;49297;43.210;27.914;2022-09-29T08:54:26;4.75;;;4.25;;
63203;SDS011;49297;43.210;27.914;2022-09-29T08:57:03;8.40;;;4.40;;
63203;SDS011;49297;43.210;27.914;2022-09-29T08:59:31;6.87;;;3.63;;
63203;SDS011;49297;43.210;27.914;2022-09-29T09:10:16;6.70;;;4.22;;
63203;SDS011;49297;43.210;27.914;2022-09-29T09:13:23;4.47;;;3.72;;
63203;SDS011;49297;43.210;27.914;2022-09-29T09:16:03;7.18;;;4.53;;
63203;SDS011;49297;43.210;27.914;2022-09-29T09:21:19;7.03;;;5.93;;
63203;SDS011;49297;43.210;27.914;2022-09-29T09:24:13;8.13;;;4.57;;
63203;SDS011;49297;43.210;27.914;2022-09-29T09:26:50;6.93;;;4.47;;
63203;SDS011;49297;43.210;27.914;2022-09-29T09:29:22;9.93;;;6.65;;
63203;SDS011;49297;43.210;27.914;2022-09-29T09:34:38;6.72;;;5.22;;
63203;SDS011;49297;43.210;27.914;2022-09-29T09:42:37;7.45;;;5.25;;
63203;SDS011;49297;43.210;27.914;2022-09-29T09:45:22;10.30;;;5.53;;
63203;SDS011;49297;43.210;27.914;2022-09-29T09:47:55;7.00;;;5.30;;
63203;SDS011;49297;43.210;27.914;2022-09-29T09:50:27;10.00;;;5.53;;
63203;SDS011;49297;43.210;27.914;2022-09-29T09:52:55;9.93;;;5.60;;
63203;SDS011;49297;43.210;27.914;2022-09-29T09:55:23;10.50;;;4.93;;
63203;SDS011;49297;43.210;27.914;2022-09-29T10:03:10;12.98;;;5.93;;
63203;SDS011;49297;43.210;27.914;2022-09-29T10:05:40;9.43;;;6.00;;
63203;SDS011;49297;43.210;27.914;2022-09-29T10:08:27;10.73;;;5.93;;
63203;SDS011;49297;43.210;27.914;2022-09-29T10:10:54;7.30;;;5.32;;
63203;SDS011;49297;43.210;27.914;2022-09-29T10:13:23;9.13;;;5.88;;
63203;SDS011;49297;43.210;27.914;2022-09-29T10:15:58;7.22;;;5.10;;
63203;SDS011;49297;43.210;27.914;2022-09-29T10:18:55;8.57;;;5.37;;
63203;SDS011;49297;43.210;27.914;2022-09-29T10:23:54;8.50;;;6.10;;
63203;SDS011;49297;43.210;27.914;2022-09-29T10:26:22;11.57;;;5.88;;
63203;SDS011;49297;43.210;27.914;2022-09-29T10:31:27;6.73;;;5.10;;
63203;SDS011;49297;43.210;27.914;2022-09-29T10:36:59;9.65;;;5.90;;
63203;SDS011;49297;43.210;27.914;2022-09-29T10:39:37;6.88;;;5.32;;
63203;SDS011;49297;43.210;27.914;2022-09-29T10:44:54;10.60;;;7.40;;
63203;SDS011;49297;43.210;27.914;2022-09-29T10:47:26;7.67;;;5.57;;
63203;SDS011;49297;43.210;27.914;2022-09-29T10:53:00;8.60;;;5.68;;
63203;SDS011;49297;43.210;27.914;2022-09-29T10:55:33;9.65;;;6.88;;
63203;SDS011;49297;43.210;27.914;2022-09-29T10:58:05;7.60;;;5.78;;
63203;SDS011;49297;43.210;27.914;2022-09-29T11:00:46;6.93;;;5.15;;
63203;SDS011;49297;43.210;27.914;2022-09-29T11:03:20;13.25;;;5.55;;
63203;SDS011;49297;43.210;27.914;2022-09-29T11:06:11;11.63;;;5.75;;
63203;SDS011;49297;43.210;27.914;2022-09-29T11:08:56;7.18;;;4.53;;
63203;SDS011;49297;43.210;27.914;2022-09-29T11:11:52;13.90;;;5.88;;
63203;SDS011;49297;43.210;27.914;2022-09-29T11:14:28;8.73;;;5.55;;
63203;SDS011;49297;43.210;27.914;2022-09-29T11:16:55;10.10;;;5.45;;
63203;SDS011;49297;43.210;27.914;2022-09-29T11:19:24;11.98;;;5.65;;
63203;SDS011;49297;43.210;27.914;2022-09-29T11:27:26;6.40;;;4.75;;
63203;SDS011;49297;43.210;27.914;2022-09-29T11:30:10;8.82;;;5.57;;
63203;SDS011;49297;43.210;27.914;2022-09-29T11:38:21;8.60;;;5.33;;
63203;SDS011;49297;43.210;27.914;2022-09-29T12:00:13;11.95;;;7.95;;
63203;SDS011;49297;43.210;27.914;2022-09-29T12:14:13;11.52;;;7.90;;
63203;SDS011;49297;43.210;27.914;2022-09-29T12:16:43;11.25;;;6.70;;
63203;SDS011;49297;43.210;27.914;2022-09-29T12:19:18;10.35;;;7.40;;
63203;SDS011;49297;43.210;27.914;2022-09-29T12:21:51;9.65;;;6.72;;
63203;SDS011;49297;43.210;27.914;2022-09-29T12:24:32;11.38;;;7.43;;
63203;SDS011;49297;43.210;27.914;2022-09-29T12:27:10;11.75;;;7.78;;
63203;SDS011;49297;43.210;27.914;2022-09-29T12:29:49;10.23;;;6.88;;
63203;SDS011;49297;43.210;27.914;2022-09-29T12:35:29;13.98;;;7.47;;
63203;SDS011;49297;43.210;27.914;2022-09-29T12:41:10;12.25;;;6.90;;
63203;SDS011;49297;43.210;27.914;2022-09-29T12:46:43;14.25;;;7.45;;
63203;SDS011;49297;43.210;27.914;2022-09-29T12:52:02;11.10;;;7.32;;
63203;SDS011;49297;43.210;27.914;2022-09-29T12:54:46;10.95;;;6.75;;
63203;SDS011;49297;43.210;27.914;2022-09-29T12:57:30;12.80;;;7.30;;
63203;SDS011;49297;43.210;27.914;2022-09-29T13:00:08;15.07;;;7.13;;
63203;SDS011;49297;43.210;27.914;2022-09-29T13:11:35;12.50;;;5.93;;
63203;SDS011;49297;43.210;27.914;2022-09-29T13:17:34;12.68;;;6.70;;
63203;SDS011;49297;43.210;27.914;2022-09-29T13:20:14;11.55;;;6.45;;
63203;SDS011;49297;43.210;27.914;2022-09-29T13:25:40;10.30;;;7.50;;
63203;SDS011;49297;43.210;27.914;2022-09-29T13:31:10;9.15;;;7.22;;
63203;SDS011;49297;43.210;27.914;2022-09-29T13:33:46;15.10;;;7.17;;
63203;SDS011;49297;43.210;27.914;2022-09-29T13:36:25;11.23;;;6.97;;
63203;SDS011;49297;43.210;27.914;2022-09-29T13:38:56;13.40;;;6.82;;
63203;SDS011;49297;43.210;27.914;2022-09-29T13:54:22;10.07;;;7.53;;
63203;SDS011;49297;43.210;27.914;2022-09-29T13:57:38;15.27;;;8.18;;
63203;SDS011;49297;43.210;27.914;2022-09-29T14:04:52;23.98;;;14.30;;
63203;SDS011;49297;43.210;27.914;2022-09-29T14:13:06;13.57;;;11.33;;
63203;SDS011;49297;43.210;27.914;2022-09-29T14:18:37;19.52;;;17.13;;
63203;SDS011;49297;43.210;27.914;2022-09-29T14:21:09;15.07;;;12.70;;
63203;SDS011;49297;43.210;27.914;2022-09-29T14:29:27;14.23;;;12.73;;
63203;SDS011;49297;43.210;27.914;2022-09-29T14:31:58;15.50;;;12.77;;
63203;SDS011;49297;43.210;27.914;2022-09-29T14:34:27;18.40;;;13.45;;
63203;SDS011;49297;43.210;27.914;2022-09-29T14:36:56;15.48;;;13.80;;
63203;SDS011;49297;43.210;27.914;2022-09-29T14:39:25;14.77;;;13.20;;
63203;SDS011;49297;43.210;27.914;2022-09-29T14:41:53;14.10;;;12.52;;
63203;SDS011;49297;43.210;27.914;2022-09-29T14:44:24;13.65;;;12.25;;
63203;SDS011;49297;43.210;27.914;2022-09-29T14:47:38;13.52;;;12.07;;
63203;SDS011;49297;43.210;27.914;2022-09-29T14:50:58;15.10;;;13.23;;
63203;SDS011;49297;43.210;27.914;2022-09-29T15:04:45;15.18;;;11.13;;
63203;SDS011;49297;43.210;27.914;2022-09-29T15:07:12;13.30;;;11.98;;
63203;SDS011;49297;43.210;27.914;2022-09-29T15:09:45;15.70;;;12.10;;
63203;SDS011;49297;43.210;27.914;2022-09-29T15:12:20;16.73;;;12.95;;
63203;SDS011;49297;43.210;27.914;2022-09-29T15:14:48;13.43;;;12.07;;
63203;SDS011;49297;43.210;27.914;2022-09-29T15:25:59;16.75;;;12.90;;
63203;SDS011;49297;43.210;27.914;2022-09-29T15:30:59;19.48;;;14.77;;
63203;SDS011;49297;43.210;27.914;2022-09-29T15:33:34;16.67;;;13.65;;
63203;SDS011;49297;43.210;27.914;2022-09-29T15:36:15;16.90;;;15.23;;
63203;SDS011;49297;43.210;27.914;2022-09-29T15:38:45;15.52;;;13.88;;
63203;SDS011;49297;43.210;27.914;2022-09-29T15:46:18;18.58;;;15.85;;
63203;SDS011;49297;43.210;27.914;2022-09-29T15:51:31;16.70;;;14.98;;
63203;SDS011;49297;43.210;27.914;2022-09-29T15:53:57;16.08;;;14.38;;
63203;SDS011;49297;43.210;27.914;2022-09-29T15:56:25;20.75;;;16.45;;
63203;SDS011;49297;43.210;27.914;2022-09-29T15:58:53;17.77;;;16.02;;
63203;SDS011;49297;43.210;27.914;2022-09-29T16:01:19;19.25;;;16.40;;
63203;SDS011;49297;43.210;27.914;2022-09-29T16:03:49;17.45;;;15.90;;
63203;SDS011;49297;43.210;27.914;2022-09-29T16:06:28;18.00;;;16.30;;
63203;SDS011;49297;43.210;27.914;2022-09-29T16:09:01;17.73;;;15.80;;
63203;SDS011;49297;43.210;27.914;2022-09-29T16:11:30;17.58;;;15.75;;
63203;SDS011;49297;43.210;27.914;2022-09-29T16:14:02;18.40;;;16.60;;
63203;SDS011;49297;43.210;27.914;2022-09-29T16:16:40;20.40;;;17.38;;
63203;SDS011;49297;43.210;27.914;2022-09-29T16:19:19;20.50;;;18.33;;
63203;SDS011;49297;43.210;27.914;2022-09-29T16:21:53;17.88;;;16.05;;
63203;SDS011;49297;43.210;27.914;2022-09-29T16:24:29;19.92;;;17.55;;
63203;SDS011;49297;43.210;27.914;2022-09-29T16:26:58;19.92;;;17.45;;
63203;SDS011;49297;43.210;27.914;2022-09-29T16:31:54;19.05;;;17.02;;
63203;SDS011;49297;43.210;27.914;2022-09-29T16:37:05;18.58;;;17.05;;
63203;SDS011;49297;43.210;27.914;2022-09-29T16:39:43;19.10;;;17.25;;
63203;SDS011;49297;43.210;27.914;2022-09-29T16:42:18;20.73;;;17.05;;
63203;SDS011;49297;43.210;27.914;2022-09-29T16:44:47;18.50;;;16.67;;
63203;SDS011;49297;43.210;27.914;2022-09-29T16:47:22;19.38;;;17.70;;
63203;SDS011;49297;43.210;27.914;2022-09-29T16:49:52;21.58;;;19.25;;
63203;SDS011;49297;43.210;27.914;2022-09-29T16:52:44;20.05;;;17.88;;
63203;SDS011;49297;43.210;27.914;2022-09-29T16:58:01;22.52;;;18.27;;
63203;SDS011;49297;43.210;27.914;2022-09-29T17:00:29;19.77;;;17.83;;
63203;SDS011;49297;43.210;27.914;2022-09-29T17:02:56;20.50;;;18.60;;
63203;SDS011;49297;43.210;27.914;2022-09-29T17:05:23;19.05;;;17.13;;
63203;SDS011;49297;43.210;27.914;2022-09-29T17:07:50;25.00;;;19.55;;
63203;SDS011;49297;43.210;27.914;2022-09-29T17:10:24;19.50;;;17.58;;
63203;SDS011;49297;43.210;27.914;2022-09-29T17:12:50;21.75;;;19.70;;
63203;SDS011;49297;43.210;27.914;2022-09-29T17:15:17;19.38;;;17.08;;
63203;SDS011;49297;43.210;27.914;2022-09-29T17:17:43;20.58;;;18.48;;
63203;SDS011;49297;43.210;27.914;2022-09-29T17:20:11;21.55;;;19.48;;
63203;SDS011;49297;43.210;27.914;2022-09-29T17:22:39;20.88;;;18.67;;
63203;SDS011;49297;43.210;27.914;2022-09-29T17:25:06;20.88;;;18.23;;
63203;SDS011;49297;43.210;27.914;2022-09-29T17:27:32;16.73;;;15.20;;
63203;SDS011;49297;43.210;27.914;2022-09-29T17:30:18;23.77;;;18.27;;
63203;SDS011;49297;43.210;27.914;2022-09-29T17:32:48;21.50;;;19.30;;
63203;SDS011;49297;43.210;27.914;2022-09-29T17:35:16;20.27;;;18.35;;
63203;SDS011;49297;43.210;27.914;2022-09-29T17:37:43;20.10;;;17.90;;
63203;SDS011;49297;43.210;27.914;2022-09-29T17:40:33;22.40;;;18.27;;
63203;SDS011;49297;43.210;27.914;2022-09-29T17:43:02;20.92;;;18.83;;
63203;SDS011;49297;43.210;27.914;2022-09-29T17:45:28;21.23;;;19.00;;
63203;SDS011;49297;43.210;27.914;2022-09-29T17:47:56;20.10;;;18.23;;
63203;SDS011;49297;43.210;27.914;2022-09-29T17:50:27;20.98;;;19.02;;
63203;SDS011;49297;43.210;27.914;2022-09-29T17:52:57;21.85;;;18.20;;
63203;SDS011;49297;43.210;27.914;2022-09-29T17:55:26;21.85;;;16.95;;
63203;SDS011;49297;43.210;27.914;2022-09-29T17:57:52;21.73;;;19.85;;
63203;SDS011;49297;43.210;27.914;2022-09-29T18:00:32;21.02;;;18.85;;
63203;SDS011;49297;43.210;27.914;2022-09-29T18:03:06;21.05;;;19.00;;
63203;SDS011;49297;43.210;27.914;2022-09-29T18:05:34;21.13;;;19.13;;
63203;SDS011;49297;43.210;27.914;2022-09-29T18:08:11;21.63;;;19.57;;
63203;SDS011;49297;43.210;27.914;2022-09-29T18:10:43;19.00;;;17.15;;
63203;SDS011;49297;43.210;27.914;2022-09-29T18:13:10;22.13;;;17.85;;
63203;SDS011;49297;43.210;27.914;2022-09-29T18:15:37;18.00;;;16.10;;
63203;SDS011;49297;43.210;27.914;2022-09-29T18:18:04;17.73;;;16.13;;
63203;SDS011;49297;43.210;27.914;2022-09-29T18:20:34;18.93;;;17.03;;
63203;SDS011;49297;43.210;27.914;2022-09-29T18:23:01;18.73;;;15.23;;
63203;SDS011;49297;43.210;27.914;2022-09-29T18:25:29;16.43;;;14.73;;